createdAt,value
2017-07-05T00:00:38.447Z,69.35
2017-07-05T00:01:48.710Z,69.35
2017-07-05T00:02:58.986Z,69.32
2017-07-05T00:04:08.951Z,69.26
2017-07-05T00:05:19.167Z,69.6
2017-07-05T00:06:29.440Z,69.6
2017-07-05T00:07:39.694Z,70.18
2017-07-05T00:08:49.330Z,69.7
2017-07-05T00:09:59.276Z,69.8
2017-07-05T00:11:09.477Z,69.89
2017-07-05T00:12:19.431Z,69.83
2017-07-05T00:13:29.386Z,69.99
2017-07-05T00:14:39.349Z,70.03
2017-07-05T00:15:48.982Z,69.64
2017-07-05T00:16:59.497Z,69.45
2017-07-05T00:18:09.436Z,69.7
2017-07-05T00:19:19.389Z,69.74
2017-07-05T00:20:29.646Z,69.83
2017-07-05T00:21:39.598Z,70.12
2017-07-05T00:22:50.410Z,70.21
2017-07-05T00:24:00.658Z,69.83
2017-07-05T00:25:10.939Z,70.41
2017-07-05T00:26:21.210Z,70.12
2017-07-05T00:27:30.526Z,70.12
2017-07-05T00:28:40.718Z,70.7
2017-07-05T00:29:50.386Z,70.7
2017-07-05T00:31:00.349Z,70.6
2017-07-05T00:32:10.624Z,70.85
2017-07-05T00:33:20.908Z,71.14
2017-07-05T00:34:31.483Z,70.95
2017-07-05T00:35:41.752Z,71.23
2017-07-05T00:36:51.391Z,70.85
2017-07-05T00:38:01.348Z,71.33
2017-07-05T00:39:11.613Z,71.14
2017-07-05T00:40:22.139Z,71.91
2017-07-05T00:41:32.414Z,71.81
2017-07-05T00:42:42.059Z,71.71
2017-07-05T00:43:52.341Z,71.81
2017-07-05T00:45:02.595Z,71.91
2017-07-05T00:46:12.783Z,71.91
2017-07-05T00:47:23.041Z,72.58
2017-07-05T00:48:33.299Z,72.58
2017-07-05T00:49:43.564Z,72.19
2017-07-05T00:50:53.199Z,72.29
2017-07-05T00:52:03.713Z,71.62
2017-07-05T00:53:13.970Z,71.81
2017-07-05T00:54:24.245Z,71.62
2017-07-05T00:55:34.532Z,71.81
2017-07-05T00:56:44.496Z,71.81
2017-07-05T01:02:41.552Z,71.52
2017-07-05T01:03:51.528Z,71.62
2017-07-05T01:05:01.161Z,71.91
2017-07-05T01:06:10.792Z,72.29
2017-07-05T01:07:20.755Z,72.19
2017-07-05T01:08:31.269Z,72.48
2017-07-05T01:09:41.226Z,73.05
2017-07-05T01:10:51.506Z,72.77
2017-07-05T01:12:01.452Z,73.34
2017-07-05T01:13:11.724Z,73.59
2017-07-05T01:14:22.246Z,73.5
2017-07-05T01:15:32.524Z,73.91
2017-07-05T01:16:42.775Z,74.01
2017-07-05T01:17:53.025Z,74.36
2017-07-05T01:19:03.285Z,74.26
2017-07-05T01:20:13.483Z,74.84
2017-07-05T01:21:23.415Z,75.12
2017-07-05T01:22:33.357Z,74.65
2017-07-05T01:23:42.987Z,75.22
2017-07-05T01:24:53.254Z,75.12
2017-07-05T01:26:03.150Z,75.31
2017-07-05T01:27:12.785Z,75.22
2017-07-05T01:28:23.036Z,75.51
2017-07-05T01:29:32.994Z,75.6
2017-07-05T01:30:42.962Z,75.22
2017-07-05T01:31:53.480Z,75.41
2017-07-05T01:33:03.117Z,75.6
2017-07-05T01:34:13.374Z,75.51
2017-07-05T01:35:23.630Z,75.22
2017-07-05T01:36:33.892Z,75.51
2017-07-05T01:37:44.477Z,75.89
2017-07-05T01:38:54.757Z,75.7
2017-07-05T01:40:04.395Z,75.6
2017-07-05T01:41:14.647Z,75.6
2017-07-05T01:42:24.608Z,75.6
2017-07-05T01:43:34.494Z,75.41
2017-07-05T01:44:44.454Z,75.98
2017-07-05T01:45:54.913Z,75.51
2017-07-05T01:47:04.564Z,75.31
2017-07-05T01:48:14.845Z,75.31
2017-07-05T01:49:25.365Z,75.79
2017-07-05T01:50:35.319Z,75.41
2017-07-05T01:51:45.611Z,75.31
2017-07-05T01:52:55.885Z,75.31
2017-07-05T01:54:06.139Z,75.51
2017-07-05T01:55:16.351Z,75.02
2017-07-05T01:56:26.606Z,75.7
2017-07-05T01:57:36.237Z,76.04
2017-07-05T01:58:46.493Z,75.85
2017-07-05T01:59:56.754Z,75.76
2017-07-05T02:01:07.269Z,75.95
2017-07-05T02:02:17.212Z,75.95
2017-07-05T02:03:27.165Z,75.95
2017-07-05T02:04:37.107Z,75.95
2017-07-05T02:05:47.066Z,75.66
2017-07-05T02:06:57.595Z,76.33
2017-07-05T02:08:07.861Z,76.23
2017-07-05T02:09:17.494Z,76.23
2017-07-05T02:10:27.797Z,76.23
2017-07-05T02:11:37.432Z,76.14
2017-07-05T02:12:46.994Z,76.52
2017-07-05T02:13:56.939Z,76.33
2017-07-05T02:15:07.219Z,76.81
2017-07-05T02:16:17.174Z,77
2017-07-05T02:17:27.450Z,77.09
2017-07-05T02:18:37.324Z,77.48
2017-07-05T02:19:47.588Z,77.48
2017-07-05T02:20:57.867Z,77.48
2017-07-05T02:22:08.044Z,77.48
2017-07-05T02:23:18.306Z,77.57
2017-07-05T02:24:28.496Z,77.28
2017-07-05T02:25:38.758Z,77.48
2017-07-05T02:26:49.027Z,77.57
2017-07-05T02:27:59.296Z,77.76
2017-07-05T02:29:09.558Z,77.86
2017-07-05T02:30:20.087Z,77.76
2017-07-05T02:31:30.025Z,77.86
2017-07-05T02:32:40.292Z,77.57
2017-07-05T02:33:50.253Z,77.86
2017-07-05T02:34:59.873Z,78.53
2017-07-05T02:36:10.072Z,78.53
2017-07-05T02:37:20.320Z,78.34
2017-07-05T02:38:30.610Z,78.05
2017-07-05T02:39:40.569Z,78.14
2017-07-05T02:40:50.510Z,78.14
2017-07-05T02:42:01.086Z,78.24
2017-07-05T02:43:11.030Z,77.86
2017-07-05T02:44:21.305Z,77.86
2017-07-05T02:45:31.245Z,77.76
2017-07-05T02:46:40.928Z,77.86
2017-07-05T02:47:51.112Z,78.14
2017-07-05T02:49:00.738Z,78.2
2017-07-05T02:50:11.004Z,78.43
2017-07-05T02:51:21.265Z,78.14
2017-07-05T02:52:31.521Z,77.86
2017-07-05T02:53:41.394Z,78.05
2017-07-05T02:54:51.668Z,78.05
2017-07-05T02:56:01.950Z,78.05
2017-07-05T02:57:11.908Z,78.24
2017-07-05T02:58:22.168Z,78.3
2017-07-05T02:59:32.380Z,78.2
2017-07-05T03:00:42.339Z,78.2
2017-07-05T03:01:52.305Z,78.3
2017-07-05T03:03:02.264Z,78.24
2017-07-05T03:04:11.899Z,78.2
2017-07-05T03:05:22.157Z,77.92
2017-07-05T03:06:31.786Z,78.11
2017-07-05T03:07:42.057Z,78.49
2017-07-05T03:08:52.313Z,78.24
2017-07-05T03:10:02.276Z,78.2
2017-07-05T03:11:12.483Z,78.53
2017-07-05T03:12:22.748Z,78.24
2017-07-05T03:13:32.698Z,78.63
2017-07-05T03:14:42.969Z,78.81
2017-07-05T03:15:53.242Z,78.58
2017-07-05T03:17:03.448Z,78.97
2017-07-05T03:18:13.720Z,78.2
2017-07-05T03:19:23.987Z,77.86
2017-07-05T03:20:34.249Z,78.24
2017-07-05T03:21:44.189Z,78.72
2017-07-05T03:22:54.384Z,78.2
2017-07-05T03:24:04.030Z,77.67
2017-07-05T03:25:13.981Z,77.38
2017-07-05T03:26:24.244Z,78.34
2017-07-05T03:27:34.192Z,77.67
2017-07-05T03:28:44.711Z,77.19
2017-07-05T03:29:54.679Z,77
2017-07-05T03:31:04.309Z,77.28
2017-07-05T03:32:14.569Z,77.57
2017-07-05T03:33:24.214Z,76.9
2017-07-05T03:34:34.724Z,77.48
2017-07-05T03:35:44.345Z,77.57
2017-07-05T03:36:54.283Z,77.48
2017-07-05T03:38:04.561Z,77.48
2017-07-05T03:39:14.822Z,76.81
2017-07-05T03:40:25.341Z,77
2017-07-05T03:41:35.621Z,77.09
2017-07-05T03:42:45.579Z,76.62
2017-07-05T03:43:55.211Z,76.52
2017-07-05T03:45:05.165Z,76.62
2017-07-05T03:46:15.362Z,76.42
2017-07-05T03:47:24.985Z,76.04
2017-07-05T03:48:35.274Z,75.66
2017-07-05T03:49:45.223Z,75.66
2017-07-05T03:50:55.479Z,75.76
2017-07-05T03:52:05.344Z,75.66
2017-07-05T03:53:14.980Z,76.04
2017-07-05T03:54:25.241Z,76.42
2017-07-05T03:55:34.865Z,75.76
2017-07-05T03:56:45.141Z,76.04
2017-07-05T03:57:55.064Z,76.04
2017-07-05T03:59:05.033Z,76.33
2017-07-05T04:00:15.296Z,76.42
2017-07-05T04:01:24.618Z,75.76
2017-07-05T04:02:34.885Z,75.85
2017-07-05T04:03:44.503Z,75.95
2017-07-05T04:04:54.446Z,76.52
2017-07-05T04:06:04.713Z,76.62
2017-07-05T04:07:14.961Z,76.42
2017-07-05T04:08:25.245Z,76.71
2017-07-05T04:09:35.452Z,76.9
2017-07-05T04:10:45.403Z,77.19
2017-07-05T04:11:55.662Z,77
2017-07-05T04:13:05.301Z,77.61
2017-07-05T04:14:15.243Z,77.61
2017-07-05T04:15:25.755Z,77.42
2017-07-05T04:16:36.033Z,77.51
2017-07-05T04:17:45.983Z,77.33
2017-07-05T04:18:55.938Z,77.61
2017-07-05T04:20:05.884Z,77.33
2017-07-05T04:21:16.085Z,77.42
2017-07-05T04:22:25.717Z,77.51
2017-07-05T04:23:35.969Z,77.7
2017-07-05T04:24:45.605Z,77.8
2017-07-05T04:25:54.919Z,77.9
2017-07-05T04:27:05.170Z,77.99
2017-07-05T04:28:15.426Z,77.61
2017-07-05T04:29:25.371Z,77.9
2017-07-05T04:30:35.332Z,77.99
2017-07-05T04:31:45.293Z,77.61
2017-07-05T04:32:55.792Z,77.51
2017-07-05T04:34:05.747Z,77.94
2017-07-05T04:35:15.706Z,78.13
2017-07-05T04:36:25.649Z,78.7
2017-07-05T04:37:35.941Z,78.99
2017-07-05T04:38:46.465Z,79.57
2017-07-05T04:39:56.715Z,78.99
2017-07-05T04:41:06.987Z,79.08
2017-07-05T04:42:16.311Z,79.47
2017-07-05T04:43:26.587Z,80.14
2017-07-05T04:44:37.140Z,80.62
2017-07-05T04:45:47.095Z,80.9
2017-07-05T04:46:57.035Z,81.38
2017-07-05T04:48:06.980Z,82.2
2017-07-05T04:49:16.947Z,81.57
2017-07-05T04:50:27.456Z,82.34
2017-07-05T04:51:37.400Z,82.06
2017-07-05T04:52:47.656Z,81.67
2017-07-05T04:53:57.589Z,81.77
2017-07-05T04:55:07.905Z,81.54
2017-07-05T04:56:17.731Z,81.38
2017-07-05T04:57:27.671Z,81.54
2017-07-05T04:58:37.940Z,82.68
2017-07-05T04:59:48.221Z,82.15
2017-07-05T05:00:58.498Z,81.96
2017-07-05T05:02:08.704Z,82.3
2017-07-05T05:03:18.995Z,81.54
2017-07-05T05:04:28.679Z,82.78
2017-07-05T05:05:38.956Z,82.63
2017-07-05T05:06:49.238Z,82.11
2017-07-05T05:07:59.460Z,82.34
2017-07-05T05:09:09.430Z,82.06
2017-07-05T05:10:19.394Z,82.82
2017-07-05T05:11:29.672Z,82.63
2017-07-05T05:12:39.942Z,83.59
2017-07-05T05:13:50.463Z,82.63
2017-07-05T05:15:00.726Z,82.15
2017-07-05T05:16:10.995Z,82.15
2017-07-05T05:17:21.253Z,82.53
2017-07-05T05:18:31.519Z,82.63
2017-07-05T05:19:41.718Z,82.15
2017-07-05T05:20:51.983Z,82.06
2017-07-05T05:22:02.249Z,82.43
2017-07-05T05:23:12.204Z,82.63
2017-07-05T05:24:22.134Z,82.24
2017-07-05T05:25:32.325Z,82.73
2017-07-05T05:26:42.276Z,82.34
2017-07-05T05:27:52.543Z,82.34
2017-07-05T05:29:02.822Z,82.34
2017-07-05T05:30:13.112Z,82.73
2017-07-05T05:31:23.616Z,82.73
2017-07-05T05:32:33.575Z,83.49
2017-07-05T05:33:43.520Z,83.59
2017-07-05T05:34:53.161Z,83.68
2017-07-05T05:36:02.794Z,83.78
2017-07-05T05:37:13.000Z,84.35
2017-07-05T05:38:22.963Z,84.26
2017-07-05T05:39:33.211Z,83.68
2017-07-05T05:40:43.157Z,82.73
2017-07-05T05:41:53.113Z,81.48
2017-07-05T05:43:03.645Z,81.86
2017-07-05T05:44:13.915Z,80.71
2017-07-05T05:45:23.552Z,80.43
2017-07-05T05:46:33.827Z,79.57
2017-07-05T05:47:44.105Z,79.75
2017-07-05T05:48:54.622Z,79.28
2017-07-05T05:50:04.573Z,78.32
2017-07-05T05:51:14.517Z,78.42
2017-07-05T05:52:24.153Z,78.22
2017-07-05T05:53:34.110Z,77.17
2017-07-05T05:54:44.627Z,78.42
2017-07-05T05:55:54.960Z,78.8
2017-07-05T05:57:04.591Z,78.42
2017-07-05T05:58:14.536Z,78.7
2017-07-05T05:59:24.190Z,78.61
2017-07-05T06:00:34.404Z,77.08
2017-07-05T06:01:44.361Z,77.46
2017-07-05T06:02:54.377Z,77.94
2017-07-05T06:04:04.642Z,77.84
2017-07-05T06:05:14.920Z,78.03
2017-07-05T06:06:25.444Z,78.32
2017-07-05T06:07:35.378Z,78.32
2017-07-05T06:08:45.657Z,78.99
2017-07-05T06:09:55.625Z,79.08
2017-07-05T06:11:05.903Z,78.99
2017-07-05T06:12:16.110Z,78.8
2017-07-05T06:13:26.390Z,79.28
2017-07-05T06:14:36.631Z,80.1
2017-07-05T06:15:46.892Z,80.29
2017-07-05T06:16:56.539Z,81.44
2017-07-05T06:18:06.442Z,82.59
2017-07-05T06:19:16.743Z,82.49
2017-07-05T06:20:26.378Z,82.78
2017-07-05T06:21:36.351Z,82.78
2017-07-05T06:22:46.299Z,82.59
2017-07-05T06:23:56.516Z,83.45
2017-07-05T06:25:06.160Z,83.06
2017-07-05T06:26:15.799Z,83.12
2017-07-05T06:27:25.779Z,82.83
2017-07-05T06:28:35.744Z,83.36
2017-07-05T06:29:45.944Z,83.36
2017-07-05T06:30:56.223Z,83.89
2017-07-05T06:32:05.864Z,84.22
2017-07-05T06:33:16.128Z,83.69
2017-07-05T06:35:51.277Z,83.22
2017-07-05T06:37:01.226Z,83.31
2017-07-05T06:38:11.510Z,84.17
2017-07-05T06:39:20.855Z,84.36
2017-07-05T06:40:30.434Z,84.27
2017-07-05T06:41:40.698Z,85.41
2017-07-05T06:42:50.667Z,85.32
2017-07-05T06:44:00.934Z,85.22
2017-07-05T06:45:11.191Z,85.89
2017-07-05T06:46:21.897Z,85.51
2017-07-05T06:47:32.170Z,85.51
2017-07-05T06:48:42.624Z,86.08
2017-07-05T06:49:52.588Z,85.13
2017-07-05T06:51:02.218Z,85.32
2017-07-05T06:52:12.445Z,84.36
2017-07-05T06:53:22.074Z,84.94
2017-07-05T06:54:32.340Z,85.61
2017-07-05T06:55:42.314Z,85.71
2017-07-05T06:56:52.275Z,86.66
2017-07-05T06:58:02.855Z,86.85
2017-07-05T06:59:13.379Z,87.62
2017-07-05T07:00:23.023Z,87.52
2017-07-05T07:01:32.999Z,88
2017-07-05T07:02:42.324Z,86.47
2017-07-05T07:03:52.537Z,86.28
2017-07-05T07:05:02.256Z,85.99
2017-07-05T07:06:12.213Z,86.37
2017-07-05T07:07:22.470Z,85.71
2017-07-05T07:08:32.424Z,85.71
2017-07-05T07:09:42.934Z,86.18
2017-07-05T07:10:52.590Z,85.51
2017-07-05T07:12:02.852Z,86.85
2017-07-05T07:13:13.121Z,87.29
2017-07-05T07:14:23.395Z,87.76
2017-07-05T07:15:33.267Z,86.61
2017-07-05T07:16:43.219Z,87.66
2017-07-05T07:17:53.179Z,87.66
2017-07-05T07:19:03.467Z,88.15
2017-07-05T07:20:13.089Z,88.24
2017-07-05T07:21:23.605Z,88.43
2017-07-05T07:22:33.256Z,88.24
2017-07-05T07:23:43.212Z,88.38
2017-07-05T07:24:53.478Z,88.48
2017-07-05T07:26:03.112Z,89.58
2017-07-05T07:27:13.311Z,89.53
2017-07-05T07:28:23.596Z,88.67
2017-07-05T07:29:33.564Z,88.86
2017-07-05T07:30:43.824Z,88.48
2017-07-05T07:31:53.763Z,88.86
2017-07-05T07:33:03.985Z,87.71
2017-07-05T07:34:13.633Z,87.62
2017-07-05T07:35:23.952Z,87.71
2017-07-05T07:36:34.218Z,87.62
2017-07-05T07:37:43.849Z,87.33
2017-07-05T07:38:54.366Z,88.67
2017-07-05T07:40:03.998Z,88.19
2017-07-05T07:41:14.277Z,88.86
2017-07-05T07:42:24.573Z,89.24
2017-07-05T07:43:34.250Z,89.43
2017-07-05T07:44:44.497Z,88.76
2017-07-05T07:45:54.466Z,88.76
2017-07-05T07:47:04.122Z,89.62
2017-07-05T07:48:14.081Z,89.43
2017-07-05T07:49:24.361Z,89.34
2017-07-05T07:50:34.887Z,89.72
2017-07-05T07:51:44.846Z,89.34
2017-07-05T07:52:55.132Z,90.1
2017-07-05T07:54:05.423Z,88.48
2017-07-05T07:55:15.721Z,89.53
2017-07-05T07:56:26.238Z,89.91
2017-07-05T07:57:36.506Z,89.81
2017-07-05T07:58:46.797Z,90.3
2017-07-05T07:59:57.067Z,89.29
2017-07-05T08:01:07.060Z,90.63
2017-07-05T08:02:17.647Z,90.63
2017-07-05T08:03:27.917Z,88.71
2017-07-05T08:04:37.547Z,88.13
2017-07-05T08:05:47.804Z,88.81
2017-07-05T08:06:57.775Z,89.19
2017-07-05T08:08:07.353Z,89.48
2017-07-05T08:09:17.305Z,88.9
2017-07-05T08:10:27.259Z,88.9
2017-07-05T08:11:37.540Z,88.76
2017-07-05T08:12:47.851Z,88.67
2017-07-05T08:13:58.214Z,88.95
2017-07-05T08:15:08.122Z,89.34
2017-07-05T08:16:18.408Z,89.43
2017-07-05T08:17:28.359Z,89.34
2017-07-05T08:18:38.616Z,89.67
2017-07-05T08:19:49.162Z,89.19
2017-07-05T08:20:59.495Z,88.43
2017-07-05T08:22:09.768Z,89.19
2017-07-05T08:23:20.042Z,89.95
2017-07-05T08:24:30.310Z,88.81
2017-07-05T08:25:40.196Z,88.81
2017-07-05T08:26:49.884Z,89.38
2017-07-05T08:28:00.271Z,88.43
2017-07-05T08:29:10.557Z,88.43
2017-07-05T08:30:20.560Z,88.04
2017-07-05T08:31:31.209Z,88.13
2017-07-05T08:32:40.533Z,87.56
2017-07-05T08:33:50.808Z,86.9
2017-07-05T08:35:01.152Z,87.66
2017-07-05T08:36:11.453Z,88.43
2017-07-05T08:37:21.686Z,88.62
2017-07-05T08:38:31.957Z,87.56
2017-07-05T08:39:42.228Z,86.36
2017-07-05T08:40:52.510Z,86.99
2017-07-05T08:42:02.777Z,87.08
2017-07-05T08:43:13.317Z,87.66
2017-07-05T08:44:23.305Z,87.76
2017-07-05T08:45:33.597Z,88.71
2017-07-05T08:46:43.896Z,87.47
2017-07-05T08:47:53.865Z,88.13
2017-07-05T08:49:04.400Z,86.99
2017-07-05T08:50:14.680Z,87.66
2017-07-05T08:51:24.993Z,88.76
2017-07-05T08:52:35.017Z,87.51
2017-07-05T08:53:44.989Z,86.36
2017-07-05T08:54:55.532Z,86.21
2017-07-05T08:56:05.487Z,85.35
2017-07-05T08:57:15.148Z,85.16
2017-07-05T08:58:25.459Z,86.79
2017-07-05T08:59:35.415Z,87.5
2017-07-05T09:00:45.661Z,85.88
2017-07-05T09:01:55.658Z,84.95
2017-07-05T09:03:05.646Z,84.28
2017-07-05T09:04:15.620Z,84.77
2017-07-05T09:05:25.907Z,83.94
2017-07-05T09:06:36.203Z,82.89
2017-07-05T09:07:45.851Z,82.16
2017-07-05T09:08:55.793Z,78.65
2017-07-05T09:10:05.763Z,81.97
2017-07-05T09:11:16.043Z,81.49
2017-07-05T09:12:26.015Z,81.68
2017-07-05T09:13:35.663Z,83.36
2017-07-05T09:14:45.951Z,80.09
2017-07-05T09:15:56.234Z,76.48
2017-07-05T09:17:06.504Z,76.57
2017-07-05T09:18:16.780Z,77.06
2017-07-05T09:19:26.422Z,76.9
2017-07-05T09:20:36.724Z,75.27
2017-07-05T09:21:47.020Z,72.71
2017-07-05T09:22:57.244Z,70.21
2017-07-05T09:24:07.525Z,70.5
2017-07-05T09:25:17.813Z,73.63
2017-07-05T09:26:27.803Z,73.25
2017-07-05T09:27:38.101Z,74.69
2017-07-05T09:28:48.348Z,72.38
2017-07-05T09:29:57.986Z,72
2017-07-05T09:31:07.976Z,74.02
2017-07-05T09:32:18.266Z,72.58
2017-07-05T09:33:28.234Z,71.17
2017-07-05T09:34:38.208Z,71.17
2017-07-05T09:35:48.471Z,68.41
2017-07-05T09:36:58.762Z,67.97
2017-07-05T09:38:09.048Z,69.7
2017-07-05T09:39:19.334Z,66.27
2017-07-05T09:40:29.540Z,65.2
2017-07-05T09:41:39.510Z,67.84
2017-07-05T09:42:49.806Z,63.79
2017-07-05T09:44:00.088Z,64.18
2017-07-05T09:45:10.064Z,63.38
2017-07-05T09:46:20.290Z,66.71
2017-07-05T09:47:30.603Z,66.1
2017-07-05T09:48:40.893Z,64.56
2017-07-05T09:49:50.889Z,65.59
2017-07-05T09:51:01.170Z,66.55
2017-07-05T09:52:11.389Z,66.27
2017-07-05T09:53:21.348Z,66.84
2017-07-05T09:54:31.340Z,67.13
2017-07-05T09:55:41.331Z,64.95
2017-07-05T09:56:51.613Z,64.47
2017-07-05T09:58:01.816Z,63.92
2017-07-05T09:59:11.798Z,62.77
2017-07-05T10:00:22.076Z,62.03
2017-07-05T10:01:32.133Z,64.15
2017-07-05T10:02:42.095Z,60.74
2017-07-05T10:03:52.314Z,59.42
2017-07-05T10:05:02.609Z,59.61
2017-07-05T10:06:12.911Z,58.87
2017-07-05T10:07:23.202Z,58.29
2017-07-05T10:08:33.493Z,56.68
2017-07-05T10:09:43.721Z,55.45
2017-07-05T10:10:53.706Z,55.9
2017-07-05T10:12:03.700Z,56.87
2017-07-05T10:13:14.004Z,56.46
2017-07-05T10:14:23.663Z,55.2
2017-07-05T10:15:34.198Z,56.59
2017-07-05T10:16:44.201Z,58.59
2017-07-05T10:17:53.888Z,59.36
2017-07-05T10:19:04.184Z,59.45
2017-07-05T10:20:14.178Z,58.59
2017-07-05T10:21:24.705Z,59.07
2017-07-05T10:22:34.351Z,59.36
2017-07-05T10:23:43.991Z,59.75
2017-07-05T10:24:53.974Z,57.72
2017-07-05T10:26:04.263Z,56.21
2017-07-05T10:27:14.525Z,56.88
2017-07-05T10:28:24.796Z,56.43
2017-07-05T10:29:34.765Z,55.68
2017-07-05T10:30:44.758Z,54.43
2017-07-05T10:31:55.046Z,55.04
2017-07-05T10:33:04.937Z,55.33
2017-07-05T10:34:14.578Z,54.1
2017-07-05T10:35:24.229Z,52.84
2017-07-05T10:36:34.534Z,52.75
2017-07-05T10:37:44.817Z,51.59
2017-07-05T10:38:55.079Z,52.75
2017-07-05T10:40:05.055Z,53.49
2017-07-05T10:41:14.696Z,54.05
2017-07-05T10:42:24.337Z,53.85
2017-07-05T10:43:34.298Z,53.95
2017-07-05T10:44:44.518Z,55.4
2017-07-05T10:45:54.800Z,56.36
2017-07-05T10:47:04.774Z,53.03
2017-07-05T10:48:14.753Z,50.65
2017-07-05T10:49:25.048Z,48.76
2017-07-05T10:50:35.606Z,48.76
2017-07-05T10:51:45.898Z,47.67
2017-07-05T10:52:55.871Z,47.58
2017-07-05T10:54:05.508Z,48.61
2017-07-05T10:55:15.807Z,49.87
2017-07-05T10:56:26.071Z,49.85
2017-07-05T10:57:35.700Z,51.68
2017-07-05T10:58:46.236Z,53.27
2017-07-05T10:59:56.229Z,53.08
2017-07-05T11:01:06.207Z,51.7
2017-07-05T11:02:16.760Z,52.95
2017-07-05T11:03:27.080Z,55.02
2017-07-05T11:04:37.380Z,55.29
2017-07-05T11:05:47.654Z,55.57
2017-07-05T11:06:57.349Z,55.51
2017-07-05T11:08:07.640Z,54.64
2017-07-05T11:09:17.907Z,55.63
2017-07-05T11:10:27.865Z,54.02
2017-07-05T11:11:38.148Z,53.17
2017-07-05T11:12:48.433Z,50.79
2017-07-05T11:13:59.013Z,50.33
2017-07-05T11:15:08.975Z,51.1
2017-07-05T11:16:19.260Z,52.07
2017-07-05T11:17:29.289Z,49.75
2017-07-05T11:18:39.611Z,48.97
2017-07-05T11:19:49.843Z,49.37
2017-07-05T11:20:59.827Z,51.17
2017-07-05T11:22:10.123Z,51.82
2017-07-05T11:23:19.787Z,51.34
2017-07-05T11:24:29.442Z,51.63
2017-07-05T11:25:40.069Z,53.27
2017-07-05T11:26:50.207Z,52.5
2017-07-05T11:28:00.172Z,52.11
2017-07-05T11:29:10.468Z,51.53
2017-07-05T11:30:20.125Z,51.27
2017-07-05T11:31:30.719Z,50.79
2017-07-05T11:32:41.012Z,50.91
2017-07-05T11:33:50.999Z,49.34
2017-07-05T11:35:00.960Z,50.89
2017-07-05T11:36:11.274Z,50.79
2017-07-05T11:37:21.497Z,50.31
2017-07-05T11:38:31.803Z,49.92
2017-07-05T11:39:41.664Z,49.73
2017-07-05T11:40:51.986Z,50.47
2017-07-05T11:42:01.963Z,51.63
2017-07-05T11:43:12.184Z,52.67
2017-07-05T11:44:22.182Z,53.34
2017-07-05T11:45:32.571Z,53.31
2017-07-05T11:46:42.849Z,53.05
2017-07-05T11:47:52.814Z,53.44
2017-07-05T11:49:03.611Z,51.92
2017-07-05T11:50:13.618Z,51.05
2017-07-05T11:51:23.902Z,50.89
2017-07-05T11:52:34.202Z,50.59
2017-07-05T11:53:44.169Z,49.92
2017-07-05T11:54:54.715Z,49.92
2017-07-05T11:56:05.005Z,51.63
2017-07-05T11:57:14.972Z,53.25
2017-07-05T11:58:24.959Z,52.95
2017-07-05T11:59:34.937Z,52.95
2017-07-05T12:00:45.210Z,52.47
2017-07-05T12:01:55.510Z,51.73
2017-07-05T12:03:05.818Z,51.25
2017-07-05T12:04:15.478Z,51.73
2017-07-05T12:05:25.757Z,51.25
2017-07-05T12:06:35.676Z,51.63
2017-07-05T12:07:45.968Z,51.82
2017-07-05T12:08:56.279Z,52.69
2017-07-05T12:10:06.263Z,52.11
2017-07-05T12:11:16.539Z,52.01
2017-07-05T12:12:26.507Z,52.47
2017-07-05T12:13:35.149Z,53.92
2017-07-05T12:14:45.467Z,54.76
2017-07-05T12:15:55.759Z,54.64
2017-07-05T12:17:06.049Z,54.86
2017-07-05T12:18:16.556Z,55.6
2017-07-05T12:19:26.828Z,54.66
2017-07-05T12:20:36.480Z,54.47
2017-07-05T12:21:46.458Z,53.34
2017-07-05T12:22:56.424Z,51.34
2017-07-05T12:24:06.953Z,49.73
2017-07-05T12:25:17.227Z,49.17
2017-07-05T12:26:27.182Z,49.46
2017-07-05T12:27:37.453Z,48.59
2017-07-05T12:28:47.111Z,48.59
2017-07-05T12:29:57.060Z,48.61
2017-07-05T12:31:07.353Z,48.59
2017-07-05T12:32:17.626Z,49.73
2017-07-05T12:33:27.603Z,51.63
2017-07-05T12:34:37.567Z,51.51
2017-07-05T12:35:47.784Z,51.73
2017-07-05T12:36:57.751Z,51.61
2017-07-05T12:38:07.706Z,51.53
2017-07-05T12:39:18.012Z,51.44
2017-07-05T12:40:27.989Z,50.38
2017-07-05T12:41:38.251Z,49.8
2017-07-05T12:42:47.905Z,49.63
2017-07-05T12:43:57.876Z,50.18
2017-07-05T12:45:07.519Z,50.86
2017-07-05T12:46:17.817Z,50.96
2017-07-05T12:47:28.026Z,50.47
2017-07-05T12:48:37.977Z,50.86
2017-07-05T12:49:47.947Z,50.76
2017-07-05T12:50:58.263Z,51.89
2017-07-05T12:52:08.551Z,52.28
2017-07-05T12:53:19.115Z,52.35
2017-07-05T12:54:29.098Z,53.7
2017-07-05T12:55:39.412Z,53.03
2017-07-05T12:56:49.705Z,53.67
2017-07-05T12:58:00.015Z,54.16
2017-07-05T12:59:10.555Z,54.35
2017-07-05T13:00:20.843Z,54.83
2017-07-05T13:01:30.492Z,56.15
2017-07-05T13:02:40.448Z,56.15
2017-07-05T13:03:49.449Z,56.73
2017-07-05T13:04:59.998Z,56.44
2017-07-05T13:06:09.981Z,56.35
2017-07-05T13:07:19.645Z,56.18
2017-07-05T13:08:29.633Z,54.83
2017-07-05T13:09:39.599Z,53.41
2017-07-05T13:10:49.514Z,53.61
2017-07-05T13:11:59.481Z,51.41
2017-07-05T13:13:09.759Z,49.99
2017-07-05T13:14:19.735Z,48.28
2017-07-05T13:15:30.029Z,48.66
2017-07-05T13:16:40.556Z,48.76
2017-07-05T13:17:50.829Z,49.82
2017-07-05T13:19:01.116Z,49.7
2017-07-05T13:20:11.402Z,48.86
2017-07-05T13:21:21.683Z,49.44
2017-07-05T13:22:31.889Z,48.57
2017-07-05T13:23:42.142Z,48.59
2017-07-05T13:24:52.420Z,48.49
2017-07-05T13:26:02.393Z,48.69
2017-07-05T13:27:12.683Z,47.84
2017-07-05T13:28:22.888Z,47.16
2017-07-05T13:29:32.854Z,48.11
2017-07-05T13:30:43.132Z,49.63
2017-07-05T13:31:53.096Z,49.51
2017-07-05T13:33:02.753Z,50.18
2017-07-05T13:34:12.970Z,50.28
2017-07-05T13:35:23.275Z,50.69
2017-07-05T13:36:33.563Z,49.53
2017-07-05T13:37:43.530Z,49.34
2017-07-05T13:38:53.176Z,49.73
2017-07-05T13:40:03.717Z,49.32
2017-07-05T13:41:13.692Z,50.47
2017-07-05T13:42:23.675Z,50.93
2017-07-05T13:43:33.956Z,51.7
2017-07-05T13:44:44.229Z,51.12
2017-07-05T13:45:54.459Z,51.7
2017-07-05T13:47:04.421Z,51.97
2017-07-05T13:48:14.705Z,50.54
2017-07-05T13:49:24.680Z,49.8
2017-07-05T13:50:34.973Z,50.35
2017-07-05T13:51:45.264Z,50.45
2017-07-05T13:52:55.534Z,49.96
2017-07-05T13:54:04.854Z,50.54
2017-07-05T13:55:14.806Z,50.45
2017-07-05T13:56:24.758Z,50.93
2017-07-05T13:57:34.968Z,51.8
2017-07-05T13:58:44.938Z,51.2
2017-07-05T13:59:55.279Z,51.03
2017-07-05T14:01:05.248Z,50.81
2017-07-05T14:02:14.563Z,49.39
2017-07-05T14:03:25.087Z,48.74
2017-07-05T14:04:35.043Z,47.6
2017-07-05T14:05:45.065Z,47.53
2017-07-05T14:06:54.390Z,47.07
2017-07-05T14:08:04.664Z,47.63
2017-07-05T14:09:15.222Z,47.99
2017-07-05T14:10:25.170Z,47.6
2017-07-05T14:11:35.450Z,48.57
2017-07-05T14:12:45.416Z,48.54
2017-07-05T14:13:55.669Z,48.57
2017-07-05T14:15:06.204Z,47.33
2017-07-05T14:16:16.182Z,45.91
2017-07-05T14:17:26.147Z,44.77
2017-07-05T14:18:36.141Z,45.35
2017-07-05T14:19:46.108Z,44.96
2017-07-05T14:20:56.325Z,44.67
2017-07-05T14:22:06.624Z,44.19
2017-07-05T14:23:16.896Z,44.77
2017-07-05T14:24:27.163Z,44.96
2017-07-05T14:25:37.427Z,44.4
2017-07-05T14:26:47.642Z,42.59
2017-07-05T14:27:57.941Z,42.41
2017-07-05T14:29:07.913Z,42.97
2017-07-05T14:30:18.181Z,43.63
2017-07-05T14:31:28.479Z,43.82
2017-07-05T14:32:38.702Z,44.4
2017-07-05T14:33:48.971Z,45.25
2017-07-05T14:34:58.928Z,45.45
2017-07-05T14:36:08.902Z,44.96
2017-07-05T14:37:18.884Z,45.91
2017-07-05T14:38:28.784Z,45.52
2017-07-05T14:39:39.067Z,46.85
2017-07-05T14:40:49.041Z,47.14
2017-07-05T14:41:59.333Z,46.66
2017-07-05T14:43:09.611Z,45.89
2017-07-05T14:44:20.130Z,45.04
2017-07-05T14:45:30.417Z,44.84
2017-07-05T14:46:40.700Z,44.56
2017-07-05T14:47:50.976Z,44.36
2017-07-05T14:49:01.279Z,44.36
2017-07-05T14:50:11.814Z,44.29
2017-07-05T14:51:22.087Z,45.23
2017-07-05T14:52:32.041Z,46.47
2017-07-05T14:53:41.993Z,47.12
2017-07-05T14:54:52.286Z,48.06
2017-07-05T14:56:02.505Z,48.61
2017-07-05T14:57:12.462Z,49.1
2017-07-05T14:58:22.469Z,50.13
2017-07-05T14:59:32.431Z,49.75
2017-07-05T15:00:42.715Z,49.19
2017-07-05T15:01:53.255Z,49.29
2017-07-05T15:03:03.217Z,49.29
2017-07-05T15:04:13.499Z,49.68
2017-07-05T15:05:23.150Z,50.04
2017-07-05T15:06:33.124Z,49.39
2017-07-05T15:07:43.393Z,49.07
2017-07-05T15:08:53.366Z,49.77
2017-07-05T15:10:03.635Z,49.39
2017-07-05T15:11:13.925Z,47.38
2017-07-05T15:12:23.888Z,47.67